Time;durP1;ratioP1;P1;durP2;ratioP2;P2;SDS_P1;SDS_P2;PMS_P1;PMS_P2;Temp;Humidity;BMP_temperature;BMP_pressure;BME280_temperature;BME280_humidity;BME280_pressure;Samples;Min_cycle;Max_cycle;Signal;HPM_P1;HPM_P2
2022/03/10 00:01:38;;;;;;;122.65;36.55;;;9.40;71.90;;;;;;5023154;28;20080;-60
2022/03/10 00:04:04;;;;;;;124.40;37.50;;;9.40;72.00;;;;;;5023066;28;20067;-62
2022/03/10 00:06:29;;;;;;;114.03;37.33;;;9.30;72.10;;;;;;5021940;28;20035;-61
2022/03/10 00:08:55;;;;;;;106.78;35.00;;;9.30;72.20;;;;;;5023269;28;20049;-61
2022/03/10 00:11:20;;;;;;;104.97;36.78;;;9.30;72.30;;;;;;5022873;28;20048;-60
2022/03/10 00:13:46;;;;;;;98.68;36.22;;;9.30;72.30;;;;;;5023393;28;21056;-61
2022/03/10 00:16:12;;;;;;;104.43;34.60;;;9.20;72.20;;;;;;5021937;28;20037;-61
2022/03/10 00:18:37;;;;;;;124.57;36.35;;;9.20;72.30;;;;;;5020484;28;20022;-60
2022/03/10 00:21:03;;;;;;;90.53;33.70;;;9.20;72.40;;;;;;5023437;28;20068;-62
2022/03/10 00:23:28;;;;;;;103.22;35.40;;;9.10;72.30;;;;;;5023364;28;20026;-59
2022/03/10 00:25:55;;;;;;;91.50;33.78;;;9.10;72.40;;;;;;5006028;28;20029;-60
2022/03/10 00:28:20;;;;;;;97.97;35.42;;;9.10;72.30;;;;;;5021008;28;20033;-59
2022/03/10 00:30:46;;;;;;;85.28;33.60;;;9.00;72.20;;;;;;5022637;28;20394;-62
2022/03/10 00:33:11;;;;;;;100.38;34.35;;;9.00;72.30;;;;;;5021658;28;20038;-60
2022/03/10 00:35:37;;;;;;;89.60;32.97;;;9.00;72.30;;;;;;5024232;28;20052;-62
2022/03/10 00:38:02;;;;;;;70.70;32.90;;;9.00;72.20;;;;;;5019812;28;20048;-61
2022/03/10 00:40:28;;;;;;;89.22;32.05;;;9.00;72.30;;;;;;5021581;28;20050;-62
2022/03/10 00:42:54;;;;;;;82.28;31.40;;;8.90;72.20;;;;;;5021786;28;20045;-60
2022/03/10 00:45:19;;;;;;;93.35;32.75;;;8.90;72.30;;;;;;5023809;28;20038;-60
2022/03/10 00:47:45;;;;;;;84.47;31.67;;;8.80;72.20;;;;;;5022030;28;20041;-61
2022/03/10 00:50:10;;;;;;;71.88;30.15;;;8.80;72.20;;;;;;5022669;28;20349;-60
2022/03/10 00:52:43;;;;;;;71.70;30.85;;;8.80;72.30;;;;;;5020302;28;20120;-61
2022/03/10 00:55:09;;;;;;;74.97;30.45;;;8.70;72.20;;;;;;5005561;28;20041;-61
2022/03/10 00:57:35;;;;;;;79.90;30.85;;;8.70;72.20;;;;;;5023362;28;20134;-61
2022/03/10 01:00:01;;;;;;;67.13;31.60;;;8.70;72.20;;;;;;5021566;28;20084;-61
2022/03/10 01:02:26;;;;;;;81.15;32.30;;;8.70;72.20;;;;;;5022304;28;20037;-60
2022/03/10 01:04:51;;;;;;;79.97;33.58;;;8.60;72.20;;;;;;5023134;28;20666;-60
2022/03/10 01:07:17;;;;;;;74.53;31.00;;;8.60;72.20;;;;;;5021623;28;20076;-60
2022/03/10 01:09:42;;;;;;;68.75;30.33;;;8.60;72.30;;;;;;5019365;28;20262;-61
2022/03/10 01:12:08;;;;;;;72.55;30.95;;;8.50;72.20;;;;;;5022293;28;20079;-60
2022/03/10 01:14:34;;;;;;;61.25;30.48;;;8.60;72.30;;;;;;5023896;28;20532;-61
2022/03/10 01:16:59;;;;;;;81.88;30.33;;;8.50;72.30;;;;;;5006194;28;20029;-62
2022/03/10 01:19:25;;;;;;;66.68;30.67;;;8.50;72.30;;;;;;5021326;28;20031;-60
2022/03/10 01:21:50;;;;;;;61.22;29.65;;;8.50;72.30;;;;;;5005359;28;20029;-60
2022/03/10 01:24:16;;;;;;;70.95;30.90;;;8.40;72.30;;;;;;5020553;28;20108;-60
2022/03/10 01:26:41;;;;;;;60.80;30.35;;;8.40;72.30;;;;;;5022511;28;20032;-61
2022/03/10 01:29:07;;;;;;;61.00;30.38;;;8.40;72.40;;;;;;5022747;28;20095;-61
2022/03/10 01:31:33;;;;;;;54.58;29.52;;;8.40;72.50;;;;;;5022749;28;20058;-62
2022/03/10 01:33:59;;;;;;;63.35;30.88;;;8.30;72.40;;;;;;5020488;28;20356;-60
2022/03/10 01:36:25;;;;;;;63.20;29.95;;;8.30;72.40;;;;;;5022198;28;20034;-62
2022/03/10 01:38:51;;;;;;;56.58;28.30;;;8.30;72.40;;;;;;5030150;28;20037;-61
2022/03/10 01:41:16;;;;;;;59.22;28.95;;;8.30;72.40;;;;;;5021096;28;20037;-61
2022/03/10 01:44:01;;;;;;;55.25;28.33;;;8.20;72.40;;;;;;5022672;28;20413;-60
2022/03/10 01:46:26;;;;;;;50.65;27.58;;;8.10;72.40;;;;;;5021162;28;20034;-60
2022/03/10 01:48:52;;;;;;;51.08;28.08;;;8.20;72.50;;;;;;5020345;28;20083;-61
2022/03/10 01:51:18;;;;;;;58.40;27.27;;;8.20;72.60;;;;;;5020469;28;20032;-61
2022/03/10 01:53:43;;;;;;;48.95;27.48;;;8.20;72.70;;;;;;5005175;28;20078;-61
2022/03/10 01:56:10;;;;;;;56.47;26.75;;;8.10;72.50;;;;;;5022215;28;20033;-61
2022/03/10 01:58:37;;;;;;;47.90;27.02;;;8.20;72.60;;;;;;5020455;28;20052;-61
2022/03/10 02:01:02;;;;;;;44.53;26.83;;;8.10;72.60;;;;;;5003163;28;20124;-59
2022/03/10 02:03:28;;;;;;;47.60;26.95;;;8.10;72.50;;;;;;5020839;28;20025;-61
2022/03/10 02:05:53;;;;;;;46.97;26.63;;;8.10;72.50;;;;;;5019606;28;20044;-61
2022/03/10 02:11:03;;;;;;;49.75;27.90;;;8.00;72.50;;;;;;5006654;28;20064;-60
2022/03/10 02:13:28;;;;;;;51.67;27.88;;;8.00;72.60;;;;;;5003193;28;20473;-60
2022/03/10 02:18:38;;;;;;;49.58;27.35;;;8.00;72.60;;;;;;5020762;28;20122;-61
2022/03/10 02:21:03;;;;;;;55.60;27.08;;;7.90;72.60;;;;;;5022163;28;20485;-60
2022/03/10 02:23:29;;;;;;;50.78;27.52;;;7.90;72.60;;;;;;5020037;28;20055;-60
2022/03/10 02:25:55;;;;;;;44.03;26.95;;;7.90;72.70;;;;;;5021515;28;20048;-62
2022/03/10 02:28:21;;;;;;;43.28;25.42;;;7.90;72.60;;;;;;4985758;28;20076;-60
2022/03/10 02:30:46;;;;;;;47.25;26.48;;;7.90;72.80;;;;;;5021400;28;20139;-61
2022/03/10 02:33:12;;;;;;;43.38;26.17;;;7.80;72.80;;;;;;5022706;28;20228;-60
2022/03/10 02:35:37;;;;;;;45.15;25.77;;;7.80;72.80;;;;;;5022594;28;20201;-61
2022/03/10 02:38:03;;;;;;;49.30;26.42;;;7.80;72.80;;;;;;5019485;28;20216;-61
2022/03/10 02:40:29;;;;;;;35.80;24.67;;;7.80;72.80;;;;;;5018146;28;20049;-60
2022/03/10 02:42:54;;;;;;;45.65;25.42;;;7.70;72.90;;;;;;5021699;28;20026;-60
2022/03/10 02:45:20;;;;;;;41.75;25.85;;;7.70;72.80;;;;;;5021123;28;20117;-61
2022/03/10 02:47:45;;;;;;;46.80;26.63;;;7.70;72.90;;;;;;5022119;28;20074;-60
2022/03/10 02:50:11;;;;;;;40.47;25.92;;;7.70;72.90;;;;;;5018705;28;20033;-60
2022/03/10 02:52:37;;;;;;;41.25;27.55;;;7.60;73.10;;;;;;4985263;28;20034;-61
2022/03/10 02:55:06;;;;;;;41.05;25.25;;;7.60;73.40;;;;;;5004543;28;20389;-61
2022/03/10 02:57:32;;;;;;;42.80;25.98;;;7.60;73.70;;;;;;5019390;28;20037;-60
2022/03/10 02:59:59;;;;;;;43.30;26.20;;;7.60;74.00;;;;;;4988854;28;20030;-60
2022/03/10 03:02:24;;;;;;;41.45;25.55;;;7.60;74.10;;;;;;5021564;28;20083;-60
2022/03/10 03:04:50;;;;;;;39.28;25.02;;;7.60;74.30;;;;;;5020086;28;20030;-61
2022/03/10 03:07:15;;;;;;;38.58;25.23;;;7.60;74.60;;;;;;5019784;28;21115;-59
2022/03/10 03:09:41;;;;;;;39.95;24.83;;;7.60;74.90;;;;;;5020374;28;20065;-60
2022/03/10 03:12:07;;;;;;;41.50;25.35;;;7.60;75.10;;;;;;5018756;28;20037;-59
2022/03/10 03:14:32;;;;;;;45.25;25.23;;;7.60;75.40;;;;;;5001351;28;20033;-61
2022/03/10 03:16:58;;;;;;;38.47;25.45;;;7.50;75.30;;;;;;5019355;28;20037;-60
2022/03/10 03:19:24;;;;;;;46.25;27.35;;;7.50;75.40;;;;;;5019432;28;20057;-60
2022/03/10 03:21:50;;;;;;;48.00;28.17;;;7.50;75.50;;;;;;4985088;28;20141;-60
2022/03/10 03:24:16;;;;;;;42.42;26.60;;;7.50;75.50;;;;;;5020395;28;20033;-60
2022/03/10 03:26:42;;;;;;;49.78;28.10;;;7.50;75.60;;;;;;5020037;28;20040;-61
2022/03/10 03:29:07;;;;;;;47.83;28.00;;;7.50;75.60;;;;;;5020921;28;20041;-61
2022/03/10 03:31:33;;;;;;;43.83;27.13;;;7.40;75.60;;;;;;5018282;28;20045;-60
2022/03/10 03:33:58;;;;;;;46.50;29.08;;;7.40;75.60;;;;;;5003075;28;20140;-61
2022/03/10 03:36:24;;;;;;;44.13;29.25;;;7.40;75.50;;;;;;5020495;28;20185;-61
2022/03/10 03:38:50;;;;;;;43.28;27.90;;;7.30;75.50;;;;;;5004042;28;20149;-60
2022/03/10 03:41:15;;;;;;;43.70;27.95;;;7.30;75.40;;;;;;5018808;28;20037;-60
2022/03/10 03:43:41;;;;;;;43.15;28.60;;;7.30;75.40;;;;;;5001512;28;20431;-60
2022/03/10 03:46:06;;;;;;;44.83;28.02;;;7.30;75.30;;;;;;5015339;28;20582;-60
2022/03/10 03:48:32;;;;;;;42.55;27.95;;;7.30;75.30;;;;;;5001293;28;20048;-61
2022/03/10 03:50:57;;;;;;;43.80;28.00;;;7.30;75.40;;;;;;5017683;28;20037;-59
2022/03/10 03:53:23;;;;;;;42.13;27.02;;;7.20;75.30;;;;;;5021484;28;20503;-61
2022/03/10 03:55:48;;;;;;;45.35;26.60;;;7.20;75.20;;;;;;5019686;28;20515;-60
2022/03/10 03:58:14;;;;;;;37.72;26.23;;;7.20;75.10;;;;;;5017429;28;20044;-61
2022/03/10 04:00:39;;;;;;;40.70;25.92;;;7.30;75.20;;;;;;5019106;28;20335;-60
2022/03/10 04:03:07;;;;;;;42.30;28.02;;;7.10;75.20;;;;;;5018248;28;20130;-61
2022/03/10 04:05:32;;;;;;;40.85;27.27;;;7.20;75.20;;;;;;5019302;28;20112;-61
2022/03/10 04:07:58;;;;;;;43.53;27.25;;;7.10;75.10;;;;;;5020043;28;20648;-61
2022/03/10 04:10:23;;;;;;;39.28;26.25;;;7.20;75.10;;;;;;5017383;28;20405;-60
2022/03/10 04:12:49;;;;;;;43.38;26.98;;;7.10;75.10;;;;;;5016888;28;20117;-60
2022/03/10 04:15:14;;;;;;;44.03;26.27;;;7.10;75.20;;;;;;5019686;28;20033;-61
2022/03/10 04:17:40;;;;;;;40.28;26.42;;;7.00;75.10;;;;;;5020342;28;20033;-61
2022/03/10 04:20:08;;;;;;;42.05;26.42;;;7.00;75.00;;;;;;5018039;28;20038;-60
2022/03/10 04:22:34;;;;;;;39.47;26.95;;;7.00;75.10;;;;;;5016218;28;20033;-60
2022/03/10 04:24:59;;;;;;;34.85;24.23;;;7.00;75.10;;;;;;5018987;28;20489;-60
2022/03/10 04:27:25;;;;;;;39.85;26.85;;;7.00;75.10;;;;;;5021023;28;20033;-60
2022/03/10 04:29:50;;;;;;;38.20;25.42;;;6.90;75.00;;;;;;5023541;28;20533;-59
2022/03/10 04:32:16;;;;;;;48.45;26.02;;;6.90;75.10;;;;;;5022000;28;20036;-60
2022/03/10 04:34:41;;;;;;;35.03;24.67;;;6.90;75.00;;;;;;5022223;28;20041;-61
2022/03/10 04:37:07;;;;;;;36.33;24.95;;;6.90;75.20;;;;;;5021421;28;20076;-60
2022/03/10 04:39:32;;;;;;;38.00;25.10;;;6.90;75.00;;;;;;5020520;28;20124;-60
2022/03/10 04:41:58;;;;;;;40.00;24.48;;;6.80;75.00;;;;;;5021946;28;20492;-62
2022/03/10 04:44:23;;;;;;;38.83;26.05;;;6.80;75.00;;;;;;5023140;28;20223;-62
2022/03/10 04:46:49;;;;;;;43.47;26.90;;;6.80;75.00;;;;;;5022460;28;20479;-61
2022/03/10 04:49:15;;;;;;;37.75;27.25;;;6.80;75.10;;;;;;5022368;28;20033;-60
2022/03/10 04:51:40;;;;;;;40.03;25.20;;;6.80;75.70;;;;;;5021752;28;20045;-60
2022/03/10 04:54:06;;;;;;;34.72;24.33;;;6.80;75.00;;;;;;5021991;28;20021;-60
2022/03/10 04:56:33;;;;;;;38.50;25.92;;;6.70;75.00;;;;;;5022282;28;20033;-61
2022/03/10 04:58:58;;;;;;;34.33;24.20;;;6.70;75.10;;;;;;5003604;28;20018;-60
2022/03/10 05:01:24;;;;;;;35.28;24.58;;;6.70;75.10;;;;;;5021468;28;20045;-60
2022/03/10 05:03:50;;;;;;;34.42;24.65;;;6.60;75.10;;;;;;5021471;28;21220;-60
2022/03/10 05:06:16;;;;;;;35.83;25.30;;;6.60;75.10;;;;;;5021290;28;20040;-59
2022/03/10 05:08:41;;;;;;;35.85;25.85;;;6.60;75.20;;;;;;5021762;28;20045;-60
2022/03/10 05:11:07;;;;;;;34.10;23.75;;;6.60;75.20;;;;;;5021551;28;20147;-59
2022/03/10 05:13:33;;;;;;;35.50;24.70;;;6.60;75.20;;;;;;5002480;28;20116;-60
2022/03/10 05:15:58;;;;;;;33.17;24.35;;;6.60;75.20;;;;;;5022522;28;20481;-60
2022/03/10 05:18:24;;;;;;;36.42;24.05;;;6.50;75.20;;;;;;5021757;28;20037;-61
2022/03/10 05:20:49;;;;;;;35.40;23.85;;;6.50;75.20;;;;;;5021708;28;20519;-61
2022/03/10 05:23:15;;;;;;;39.85;25.88;;;6.50;75.20;;;;;;5022522;28;20028;-60
2022/03/10 05:25:41;;;;;;;32.03;23.58;;;6.50;75.10;;;;;;5004857;28;20500;-60
2022/03/10 05:28:14;;;;;;;40.90;24.30;;;6.50;75.20;;;;;;5017491;28;20135;-60
2022/03/10 05:30:40;;;;;;;56.97;24.83;;;6.50;75.20;;;;;;5003203;28;20046;-61
2022/03/10 05:33:06;;;;;;;38.22;26.02;;;6.50;75.10;;;;;;5020020;28;20564;-61
2022/03/10 05:35:31;;;;;;;42.92;24.50;;;6.40;75.20;;;;;;5020152;28;20104;-60
2022/03/10 05:37:57;;;;;;;54.20;25.95;;;6.40;75.30;;;;;;5022574;28;20212;-60
2022/03/10 05:40:23;;;;;;;43.80;25.48;;;6.40;75.30;;;;;;5021652;28;20021;-61
2022/03/10 05:42:50;;;;;;;42.60;26.05;;;6.40;75.40;;;;;;5020226;28;20594;-60
2022/03/10 05:45:20;;;;;;;38.97;23.73;;;6.30;75.40;;;;;;5004726;28;20591;-60
2022/03/10 05:48:04;;;;;;;42.47;24.83;;;6.40;75.40;;;;;;5022513;28;20044;-61
2022/03/10 05:50:29;;;;;;;43.70;23.40;;;6.30;75.40;;;;;;5020782;28;20116;-61
2022/03/10 05:52:55;;;;;;;44.03;23.35;;;6.30;75.40;;;;;;5019959;28;20182;-59
2022/03/10 05:55:23;;;;;;;60.88;25.75;;;6.30;75.50;;;;;;5019330;28;20037;-60
2022/03/10 05:57:48;;;;;;;44.13;24.13;;;6.20;75.40;;;;;;5019853;28;20457;-60
2022/03/10 06:00:15;;;;;;;41.72;22.83;;;6.30;75.50;;;;;;5021864;28;20103;-60
2022/03/10 06:02:40;;;;;;;47.30;23.70;;;6.30;75.40;;;;;;4988506;28;20025;-61
2022/03/10 06:05:06;;;;;;;47.17;24.60;;;6.20;75.40;;;;;;5004319;28;20041;-59
2022/03/10 06:07:32;;;;;;;45.28;24.90;;;6.30;75.40;;;;;;5019176;28;20041;-59
2022/03/10 06:09:58;;;;;;;40.50;24.38;;;6.20;75.40;;;;;;5020646;28;20045;-60
2022/03/10 06:12:24;;;;;;;40.40;24.20;;;6.20;75.40;;;;;;5016725;28;20040;-61
2022/03/10 06:14:56;;;;;;;36.40;23.75;;;6.20;75.40;;;;;;5021574;28;20026;-61
2022/03/10 06:17:22;;;;;;;37.80;22.52;;;6.20;75.40;;;;;;5021195;28;20021;-61
2022/03/10 06:19:48;;;;;;;42.42;24.33;;;6.20;75.40;;;;;;5018301;28;20029;-60
2022/03/10 06:22:17;;;;;;;50.50;24.40;;;6.20;75.40;;;;;;5015372;28;20071;-61
2022/03/10 06:24:44;;;;;;;43.65;23.48;;;6.20;75.50;;;;;;5018615;28;20022;-60
2022/03/10 06:27:10;;;;;;;38.30;23.73;;;6.10;75.40;;;;;;5003884;28;20040;-60
2022/03/10 06:29:38;;;;;;;40.58;23.75;;;6.20;75.40;;;;;;5019866;28;20029;-61
2022/03/10 06:32:04;;;;;;;34.22;23.52;;;6.10;75.50;;;;;;5018093;28;20029;-60
2022/03/10 06:34:29;;;;;;;43.78;23.38;;;6.10;75.60;;;;;;5019719;28;20079;-61
2022/03/10 06:36:56;;;;;;;36.17;24.55;;;6.10;75.60;;;;;;5019720;28;20034;-62
2022/03/10 06:39:23;;;;;;;39.65;24.50;;;6.10;75.70;;;;;;5019915;28;20045;-61
2022/03/10 06:41:49;;;;;;;42.38;24.17;;;6.10;75.80;;;;;;5005125;28;20484;-60
2022/03/10 06:44:14;;;;;;;38.17;24.33;;;6.10;75.90;;;;;;5018999;28;20033;-61
2022/03/10 06:46:40;;;;;;;40.60;24.73;;;6.10;75.90;;;;;;5019038;28;20111;-60
2022/03/10 06:49:05;;;;;;;37.88;24.55;;;6.10;75.90;;;;;;5019150;28;20040;-60
2022/03/10 06:51:31;;;;;;;35.95;24.95;;;6.10;75.90;;;;;;5018955;28;20438;-60
2022/03/10 06:53:57;;;;;;;40.95;24.27;;;6.00;76.00;;;;;;5019590;28;20492;-60
2022/03/10 06:56:22;;;;;;;36.58;24.02;;;6.00;76.00;;;;;;5022629;28;20037;-63
2022/03/10 06:58:48;;;;;;;42.70;25.55;;;6.00;76.10;;;;;;5019713;28;20029;-61
2022/03/10 07:01:13;;;;;;;36.97;24.63;;;6.00;76.30;;;;;;5017022;28;20477;-61
2022/03/10 07:03:39;;;;;;;39.85;26.27;;;6.00;76.30;;;;;;5014398;28;20057;-61
2022/03/10 07:06:05;;;;;;;46.67;26.55;;;6.00;76.40;;;;;;5019975;28;20056;-59
2022/03/10 07:08:30;;;;;;;41.80;25.20;;;6.00;76.50;;;;;;5003810;28;20021;-62
2022/03/10 07:10:56;;;;;;;39.35;25.55;;;6.00;76.50;;;;;;5017357;28;20429;-61
2022/03/10 07:13:21;;;;;;;35.83;24.92;;;6.00;76.50;;;;;;4998713;28;20065;-61
2022/03/10 07:15:47;;;;;;;40.90;25.48;;;5.90;76.50;;;;;;5017682;28;20033;-60
2022/03/10 07:18:12;;;;;;;41.92;24.98;;;5.90;76.60;;;;;;5014046;28;20417;-63
2022/03/10 07:20:38;;;;;;;41.97;25.95;;;5.90;76.60;;;;;;5015545;28;20528;-60
2022/03/10 07:23:03;;;;;;;40.30;25.30;;;5.90;76.60;;;;;;5013816;28;20117;-61
2022/03/10 07:25:29;;;;;;;38.50;24.63;;;5.90;76.70;;;;;;5019502;28;20057;-60
2022/03/10 07:27:54;;;;;;;35.95;24.55;;;5.90;76.70;;;;;;5017536;28;20442;-59
2022/03/10 07:30:20;;;;;;;39.65;25.75;;;5.90;76.70;;;;;;5016329;28;20116;-61
2022/03/10 07:32:45;;;;;;;36.95;24.23;;;5.90;76.70;;;;;;5021380;28;20032;-60
2022/03/10 07:35:11;;;;;;;47.35;25.50;;;5.90;76.60;;;;;;5019784;28;20033;-61
2022/03/10 07:37:36;;;;;;;56.38;25.92;;;5.90;76.70;;;;;;5017822;28;20057;-62
2022/03/10 07:40:03;;;;;;;49.35;26.20;;;5.90;76.70;;;;;;5019369;28;20130;-61
2022/03/10 07:42:28;;;;;;;60.13;28.02;;;6.00;76.60;;;;;;5017023;28;20033;-60
2022/03/10 07:44:54;;;;;;;74.97;28.05;;;6.00;76.50;;;;;;5016064;28;20469;-62
2022/03/10 07:47:19;;;;;;;59.72;28.80;;;5.90;76.40;;;;;;5015232;28;20025;-62
2022/03/10 07:49:45;;;;;;;53.67;25.58;;;6.00;76.50;;;;;;5015284;28;20821;-62
2022/03/10 07:52:10;;;;;;;73.85;28.33;;;6.00;76.50;;;;;;5017141;28;20045;-61
2022/03/10 07:54:36;;;;;;;61.83;27.35;;;5.90;76.50;;;;;;5015169;28;20025;-61
2022/03/10 07:57:02;;;;;;;54.20;26.50;;;6.00;76.60;;;;;;4989382;28;20788;-60
2022/03/10 07:59:27;;;;;;;70.32;27.85;;;6.00;76.70;;;;;;5011706;28;20515;-61
2022/03/10 08:01:53;;;;;;;66.43;29.10;;;6.00;76.70;;;;;;5018792;28;20512;-60
2022/03/10 08:04:19;;;;;;;93.53;28.00;;;6.00;76.70;;;;;;5000145;28;20500;-60
2022/03/10 08:06:44;;;;;;;70.78;28.05;;;6.00;76.70;;;;;;5018427;28;20017;-60
2022/03/10 08:09:10;;;;;;;63.83;28.27;;;6.00;76.70;;;;;;5019230;28;20494;-60
2022/03/10 08:11:39;;;;;;;65.95;28.05;;;6.00;76.80;;;;;;5010699;28;20421;-61
2022/03/10 08:14:05;;;;;;;74.60;27.75;;;6.10;76.80;;;;;;5013731;28;20026;-62
2022/03/10 08:16:31;;;;;;;69.05;28.15;;;6.00;76.90;;;;;;5016574;28;20140;-62
2022/03/10 08:18:57;;;;;;;72.20;27.40;;;6.00;76.90;;;;;;5035909;28;20059;-62
2022/03/10 08:21:22;;;;;;;62.85;27.90;;;6.00;76.80;;;;;;5021248;28;20034;-60
2022/03/10 08:23:48;;;;;;;69.25;26.90;;;6.00;76.80;;;;;;5012712;28;20137;-60
2022/03/10 08:26:14;;;;;;;65.47;27.20;;;6.00;77.00;;;;;;5014025;28;20151;-61
2022/03/10 08:28:40;;;;;;;65.35;27.75;;;6.00;77.00;;;;;;5009768;28;20844;-61
2022/03/10 08:31:05;;;;;;;74.75;28.35;;;6.00;76.90;;;;;;5016171;28;20048;-60
2022/03/10 08:33:31;;;;;;;60.78;26.60;;;6.00;76.90;;;;;;5021501;28;20055;-60
2022/03/10 08:35:57;;;;;;;65.30;25.17;;;6.30;77.10;;;;;;5022165;28;20045;-60
2022/03/10 08:38:22;;;;;;;64.55;28.00;;;6.10;77.00;;;;;;5017810;28;20041;-60
2022/03/10 08:40:48;;;;;;;66.55;27.88;;;6.10;76.90;;;;;;5002494;28;20041;-60
2022/03/10 08:43:15;;;;;;;83.70;27.70;;;6.10;77.00;;;;;;5013694;28;20594;-60
2022/03/10 08:45:41;;;;;;;83.47;28.92;;;6.10;76.90;;;;;;5010584;28;20107;-59
2022/03/10 08:48:06;;;;;;;70.93;26.75;;;6.10;77.00;;;;;;5012832;28;20136;-62
2022/03/10 08:50:32;;;;;;;61.10;27.05;;;6.10;77.20;;;;;;5016447;28;20153;-62
2022/03/10 08:52:57;;;;;;;82.43;28.00;;;6.10;77.30;;;;;;5009157;28;20730;-63
2022/03/10 08:55:23;;;;;;;98.55;28.63;;;6.10;77.50;;;;;;4996120;28;20418;-63
2022/03/10 08:57:49;;;;;;;82.35;28.77;;;6.20;77.40;;;;;;5030301;28;20121;-61
2022/03/10 09:00:15;;;;;;;92.75;28.27;;;6.20;77.40;;;;;;5016552;28;20029;-60
2022/03/10 09:02:41;;;;;;;78.45;27.42;;;6.20;77.40;;;;;;5011791;28;20117;-62
2022/03/10 09:05:08;;;;;;;85.28;28.38;;;6.20;77.40;;;;;;5014487;28;20041;-61
2022/03/10 09:07:34;;;;;;;99.07;29.70;;;6.20;77.40;;;;;;5013913;28;20021;-61
2022/03/10 09:09:59;;;;;;;87.15;28.88;;;6.20;77.60;;;;;;5002448;28;20038;-61
2022/03/10 09:12:25;;;;;;;85.47;29.23;;;6.30;77.60;;;;;;5016778;28;20757;-61
2022/03/10 09:14:50;;;;;;;106.18;27.85;;;6.30;77.50;;;;;;5016993;28;20026;-62
2022/03/10 09:17:16;;;;;;;95.55;29.40;;;6.30;77.50;;;;;;5021295;28;20030;-62
2022/03/10 09:19:41;;;;;;;95.75;27.27;;;6.30;77.40;;;;;;5015674;28;20041;-62
2022/03/10 09:22:07;;;;;;;118.20;29.00;;;6.30;77.50;;;;;;5018506;28;20711;-59
2022/03/10 09:24:33;;;;;;;105.03;30.02;;;6.30;77.40;;;;;;5021098;28;20775;-61
2022/03/10 09:26:58;;;;;;;92.90;28.55;;;6.40;77.50;;;;;;5016869;28;20061;-60
2022/03/10 09:29:24;;;;;;;111.95;29.85;;;6.40;77.40;;;;;;5020651;28;20079;-61
2022/03/10 09:31:49;;;;;;;116.78;30.73;;;6.40;77.30;;;;;;5019663;28;20472;-59
2022/03/10 09:34:15;;;;;;;90.28;29.15;;;6.40;77.20;;;;;;5001601;28;20523;-59
2022/03/10 09:36:40;;;;;;;98.57;29.27;;;6.40;77.20;;;;;;5016418;28;20159;-61
2022/03/10 09:39:06;;;;;;;142.40;32.38;;;6.40;77.20;;;;;;5020331;28;20033;-60
2022/03/10 09:41:31;;;;;;;161.32;32.05;;;6.50;77.30;;;;;;5021998;28;20026;-59
2022/03/10 09:43:57;;;;;;;140.15;33.92;;;6.50;77.30;;;;;;4989958;28;20034;-60
2022/03/10 09:46:23;;;;;;;126.03;33.45;;;6.50;77.30;;;;;;5017631;28;20024;-59
2022/03/10 09:48:48;;;;;;;147.82;33.30;;;6.50;77.20;;;;;;5019394;28;20474;-60
2022/03/10 09:51:15;;;;;;;116.20;31.95;;;6.50;77.20;;;;;;5017538;28;20080;-60
2022/03/10 09:53:41;;;;;;;156.30;32.60;;;6.60;77.10;;;;;;5003562;28;20109;-59
2022/03/10 09:56:07;;;;;;;155.10;34.20;;;6.60;77.20;;;;;;5019750;28;20037;-60
2022/03/10 09:58:32;;;;;;;159.88;34.67;;;6.60;77.30;;;;;;5018240;28;20074;-60
2022/03/10 10:00:59;;;;;;;134.65;34.35;;;6.60;77.20;;;;;;5014153;28;20032;-61
2022/03/10 10:03:24;;;;;;;162.85;37.00;;;6.70;77.30;;;;;;5018916;28;20123;-63
2022/03/10 10:05:50;;;;;;;121.40;33.17;;;6.70;77.30;;;;;;5019836;28;20076;-62
2022/03/10 10:08:17;;;;;;;130.07;32.10;;;6.70;77.30;;;;;;5017355;28;20915;-62
2022/03/10 10:10:50;;;;;;;154.00;34.30;;;6.70;76.70;;;;;;5016381;28;20055;-66
2022/03/10 10:13:34;;;;;;;127.82;30.25;;;6.80;76.70;;;;;;5018697;28;20048;-61
2022/03/10 10:16:06;;;;;;;113.90;30.92;;;6.80;76.60;;;;;;5019289;28;20091;-61
2022/03/10 10:18:32;;;;;;;137.77;32.95;;;6.80;76.50;;;;;;5018651;28;20053;-60
2022/03/10 10:20:58;;;;;;;174.35;36.53;;;6.90;76.40;;;;;;4985546;28;20052;-63
2022/03/10 10:23:29;;;;;;;162.43;37.63;;;6.90;76.60;;;;;;5017003;28;20112;-63
2022/03/10 10:25:58;;;;;;;166.40;38.13;;;6.90;76.90;;;;;;5019289;28;20025;-61
2022/03/10 10:28:31;;;;;;;165.88;36.78;;;6.90;76.80;;;;;;5019479;28;20505;-61
2022/03/10 10:31:00;;;;;;;123.85;32.80;;;7.00;76.80;;;;;;5014763;28;20060;-61
2022/03/10 10:33:26;;;;;;;156.52;35.33;;;7.00;76.80;;;;;;5016418;28;20112;-63
2022/03/10 10:36:09;;;;;;;158.73;36.15;;;7.10;76.60;;;;;;5015203;28;20129;-63
2022/03/10 10:38:35;;;;;;;114.07;32.38;;;7.10;76.90;;;;;;5015143;28;20043;-63
2022/03/10 10:41:17;;;;;;;128.50;31.45;;;7.10;76.70;;;;;;5013737;28;20033;-60
2022/03/10 10:43:43;;;;;;;133.30;32.67;;;7.10;76.60;;;;;;5012229;28;20037;-59
2022/03/10 10:46:30;;;;;;;203.55;38.80;;;7.20;76.50;;;;;;5020348;28;20086;-60
2022/03/10 10:48:58;;;;;;;127.45;31.13;;;7.20;76.90;;;;;;5020574;28;20029;-63
2022/03/10 10:51:33;;;;;;;142.30;32.42;;;7.30;76.60;;;;;;5001726;28;20062;-62
2022/03/10 10:53:59;;;;;;;204.93;40.67;;;7.30;76.60;;;;;;5018232;28;20830;-63
2022/03/10 10:56:33;;;;;;;217.70;39.95;;;7.40;76.90;;;;;;5016898;28;20041;-62
2022/03/10 10:59:00;;;;;;;267.92;47.42;;;7.40;77.00;;;;;;4996482;28;20049;-62
2022/03/10 11:01:31;;;;;;;266.48;46.38;;;7.40;77.30;;;;;;5008674;28;20041;-62
2022/03/10 11:03:56;;;;;;;231.35;45.22;;;7.50;77.30;;;;;;5013022;28;20025;-63
2022/03/10 11:06:22;;;;;;;208.60;43.55;;;7.50;77.30;;;;;;4994340;28;20559;-62
2022/03/10 11:08:48;;;;;;;246.98;44.15;;;7.50;77.50;;;;;;5012434;28;20392;-63
2022/03/10 11:11:15;;;;;;;214.30;43.13;;;7.60;77.30;;;;;;5015238;28;20052;-62
2022/03/10 11:13:41;;;;;;;244.85;43.30;;;7.60;77.20;;;;;;5014155;28;20045;-63
2022/03/10 11:16:07;;;;;;;205.75;42.83;;;7.60;77.20;;;;;;5008881;28;20101;-63
2022/03/10 11:18:32;;;;;;;193.73;41.70;;;7.70;77.20;;;;;;5011045;28;20159;-62
2022/03/10 11:21:33;;;;;;;379.40;55.80;;;7.70;77.20;;;;;;4981545;28;20117;-66
2022/03/10 11:24:29;;;;;;;240.55;44.30;;;7.80;77.30;;;;;;5012281;28;20029;-65
2022/03/10 11:27:03;;;;;;;165.13;39.42;;;7.80;77.40;;;;;;5007304;28;20437;-63
2022/03/10 11:29:30;;;;;;;232.75;44.65;;;7.90;76.60;;;;;;4996929;28;20087;-63
2022/03/10 11:31:56;;;;;;;237.93;42.80;;;7.90;77.20;;;;;;4999511;28;20080;-63
2022/03/10 11:34:46;;;;;;;214.93;42.50;;;7.90;77.30;;;;;;5016948;28;20112;-63
2022/03/10 11:37:12;;;;;;;219.20;41.65;;;8.00;77.30;;;;;;5021075;28;20092;-62
2022/03/10 11:39:54;;;;;;;200.38;43.22;;;8.00;77.40;;;;;;5020180;28;20052;-63
2022/03/10 11:42:25;;;;;;;187.18;39.05;;;8.00;77.30;;;;;;5016117;28;20084;-62
2022/03/10 11:45:08;;;;;;;173.93;41.22;;;8.00;77.20;;;;;;5017691;28;20017;-63
2022/03/10 11:47:34;;;;;;;228.07;39.50;;;8.10;77.20;;;;;;5014261;28;20404;-63
2022/03/10 11:50:25;;;;;;;189.55;40.63;;;8.10;77.20;;;;;;5020464;28;20029;-62
2022/03/10 11:52:58;;;;;;;180.88;38.72;;;8.20;77.00;;;;;;5022316;28;20040;-62
2022/03/10 11:55:53;;;;;;;195.18;40.90;;;8.20;76.90;;;;;;5017924;28;20029;-62
2022/03/10 11:58:20;;;;;;;197.95;38.03;;;8.20;76.80;;;;;;5000794;28;20112;-62
2022/03/10 12:00:52;;;;;;;204.25;37.80;;;8.30;76.60;;;;;;5021323;28;20461;-62
2022/03/10 12:03:28;;;;;;;189.25;37.13;;;8.30;76.80;;;;;;5021745;28;20115;-63
2022/03/10 12:05:57;;;;;;;;;;;8.40;76.80;;;;;;5021998;28;20146;-62
2022/03/10 12:08:24;;;;;;;151.10;35.20;;;8.40;76.50;;;;;;5018258;28;21121;-62
2022/03/10 12:10:50;;;;;;;190.73;37.35;;;8.50;76.80;;;;;;5023762;28;20661;-62
2022/03/10 12:13:23;;;;;;;183.32;37.40;;;8.60;76.70;;;;;;4988909;28;20036;-63
2022/03/10 12:15:49;;;;;;;155.35;33.72;;;8.50;76.40;;;;;;5006913;28;20064;-62
2022/03/10 12:18:17;;;;;;;142.27;34.13;;;8.50;76.10;;;;;;5023357;28;20029;-63
2022/03/10 12:20:46;;;;;;;154.52;35.92;;;8.60;76.00;;;;;;5034559;28;20068;-62
2022/03/10 12:23:13;;;;;;;174.57;37.47;;;8.60;75.80;;;;;;5020434;28;20030;-64
2022/03/10 12:25:43;;;;;;;185.43;35.83;;;8.70;75.80;;;;;;5022360;28;20029;-62
2022/03/10 12:28:24;;;;;;;176.30;38.40;;;8.70;75.60;;;;;;5005398;28;20464;-62
2022/03/10 12:30:50;;;;;;;166.70;35.25;;;8.70;75.40;;;;;;5000288;28;20049;-60
2022/03/10 12:33:15;;;;;;;187.68;36.33;;;8.80;75.30;;;;;;5005597;28;20045;-60
2022/03/10 12:35:41;;;;;;;154.48;35.65;;;8.80;75.20;;;;;;5018377;28;20033;-60
2022/03/10 12:38:07;;;;;;;146.85;34.35;;;8.80;75.20;;;;;;5020340;28;20156;-59